createdAt,value
2019-01-09T00:01:25.253Z,85.91
2019-01-09T00:03:54.163Z,85.44
2019-01-09T00:06:24.591Z,85.28
2019-01-09T00:08:53.361Z,86.18
2019-01-09T00:11:23.374Z,86.26
2019-01-09T00:13:52.521Z,86.14
2019-01-09T00:16:21.438Z,85.71
2019-01-09T00:18:50.294Z,85.93
2019-01-09T00:21:19.366Z,86.00
2019-01-09T00:23:48.809Z,85.22
2019-01-09T00:26:17.657Z,85.99
2019-01-09T00:28:47.197Z,85.89
2019-01-09T00:31:15.984Z,85.55
2019-01-09T00:33:44.774Z,85.82
2019-01-09T00:36:13.576Z,85.71
2019-01-09T00:38:42.347Z,86.11
2019-01-09T00:41:11.178Z,85.89
2019-01-09T00:43:40.062Z,86.04
2019-01-09T00:46:10.062Z,85.79
2019-01-09T00:48:38.855Z,85.64
2019-01-09T00:51:07.914Z,86.33
2019-01-09T00:53:36.750Z,86.68
2019-01-09T00:56:05.585Z,86.14
2019-01-09T00:58:35.449Z,86.86
2019-01-09T01:01:04.236Z,86.64
2019-01-09T01:04:47.987Z,86.19
2019-01-09T01:08:29.528Z,86.88
2019-01-09T01:11:11.486Z,86.58
2019-01-09T01:16:08.947Z,87.35
2019-01-09T01:18:49.324Z,86.98
2019-01-09T01:21:23.598Z,87.33
2019-01-09T01:24:17.351Z,86.88
2019-01-09T01:26:54.703Z,87.07
2019-01-09T01:31:32.579Z,86.98
2019-01-09T01:34:13.648Z,87.22
2019-01-09T01:38:56.927Z,87.41
2019-01-09T01:41:37.596Z,87.22
2019-01-09T01:44:32.134Z,86.87
2019-01-09T01:47:14.075Z,87.49
2019-01-09T01:49:55.890Z,88.71
2019-01-09T01:52:35.203Z,88.71
2019-01-09T01:55:17.583Z,88.31
2019-01-09T01:58:03.660Z,88.46
2019-01-09T02:00:46.752Z,88.46
2019-01-09T02:03:36.366Z,88.97
2019-01-09T02:06:26.199Z,89.66
2019-01-09T02:09:06.521Z,89.71
2019-01-09T02:11:45.275Z,89.09
2019-01-09T02:14:24.561Z,89.47
2019-01-09T02:17:04.112Z,89.65
2019-01-09T02:19:38.664Z,89.08
2019-01-09T02:23:16.372Z,88.98
2019-01-09T02:26:03.074Z,88.70
2019-01-09T02:28:43.541Z,88.82
2019-01-09T02:31:28.751Z,88.81
2019-01-09T02:33:57.506Z,88.51
2019-01-09T02:36:26.279Z,88.67
2019-01-09T02:38:55.087Z,88.65
2019-01-09T02:41:23.867Z,87.92
2019-01-09T02:43:53.627Z,87.76
2019-01-09T02:46:22.440Z,87.92
2019-01-09T02:48:51.312Z,88.16
2019-01-09T02:51:20.132Z,88.69
2019-01-09T02:53:48.963Z,88.14
2019-01-09T02:56:18.400Z,88.43
2019-01-09T02:58:47.212Z,88.68
2019-01-09T03:01:16.077Z,88.89
2019-01-09T03:03:44.903Z,88.77
2019-01-09T03:06:22.765Z,88.87
2019-01-09T03:08:43.392Z,88.03
2019-01-09T03:11:12.160Z,88.45
2019-01-09T03:13:42.316Z,87.89
2019-01-09T03:16:11.127Z,87.44
2019-01-09T03:18:39.879Z,87.69
2019-01-09T03:21:08.731Z,87.14
2019-01-09T03:23:37.564Z,87.31
2019-01-09T03:26:07.552Z,87.57
2019-01-09T03:28:37.117Z,87.18
2019-01-09T03:31:05.910Z,87.15
2019-01-09T03:33:34.819Z,87.25
2019-01-09T03:36:03.668Z,87.15
2019-01-09T03:38:34.575Z,87.35
2019-01-09T03:41:03.380Z,87.30
2019-01-09T03:43:32.320Z,87.42
2019-01-09T03:46:01.119Z,87.83
2019-01-09T03:48:29.997Z,87.81
2019-01-09T03:50:59.508Z,87.72
2019-01-09T03:53:29.099Z,88.17
2019-01-09T03:55:57.922Z,88.22
2019-01-09T03:58:26.694Z,88.48
2019-01-09T04:00:55.498Z,88.85
2019-01-09T04:03:24.498Z,88.57
2019-01-09T04:05:53.141Z,89.04
2019-01-09T04:08:21.967Z,88.99
2019-01-09T04:10:50.820Z,88.80
2019-01-09T04:13:19.598Z,88.64
2019-01-09T04:15:48.385Z,88.78
2019-01-09T04:18:17.216Z,89.92
2019-01-09T04:20:46.032Z,89.89
2019-01-09T04:23:14.799Z,89.63
2019-01-09T04:25:44.405Z,89.93
2019-01-09T04:28:13.905Z,89.87
2019-01-09T04:30:42.772Z,90.19
2019-01-09T04:33:11.566Z,90.70
2019-01-09T04:35:40.344Z,90.95
2019-01-09T04:38:09.954Z,90.41
2019-01-09T04:40:38.761Z,90.44
2019-01-09T04:43:08.052Z,90.67
2019-01-09T04:45:36.950Z,90.50
2019-01-09T04:48:05.722Z,90.75
2019-01-09T04:50:34.519Z,90.50
2019-01-09T04:53:03.318Z,90.85
2019-01-09T04:55:32.199Z,90.86
2019-01-09T04:58:00.990Z,90.76
2019-01-09T05:00:29.781Z,90.92
2019-01-09T05:02:59.665Z,90.78
2019-01-09T05:05:28.455Z,90.78
2019-01-09T05:07:57.255Z,91.34
2019-01-09T05:10:26.063Z,90.86
2019-01-09T05:12:55.359Z,90.41
2019-01-09T05:15:24.267Z,90.71
2019-01-09T05:17:54.484Z,90.81
2019-01-09T05:20:23.327Z,90.12
2019-01-09T05:22:52.261Z,90.45
2019-01-09T05:25:21.110Z,90.98
2019-01-09T05:27:49.913Z,90.19
2019-01-09T05:30:18.739Z,90.71
2019-01-09T05:32:47.520Z,90.17
2019-01-09T05:35:16.292Z,90.90
2019-01-09T05:37:45.207Z,90.84
2019-01-09T05:40:14.111Z,91.59
2019-01-09T05:42:43.027Z,90.70
2019-01-09T05:45:12.839Z,91.10
2019-01-09T05:47:41.690Z,91.19
2019-01-09T05:50:10.825Z,91.33
2019-01-09T05:52:39.732Z,91.02
2019-01-09T05:55:08.596Z,91.70
2019-01-09T05:57:37.742Z,90.71
2019-01-09T06:00:07.487Z,91.22
2019-01-09T06:02:37.224Z,90.71
2019-01-09T06:05:06.712Z,91.20
2019-01-09T06:07:35.580Z,91.13
2019-01-09T06:10:04.475Z,90.70
2019-01-09T06:12:34.480Z,91.21
2019-01-09T06:15:03.354Z,91.00
2019-01-09T06:17:32.297Z,90.87
2019-01-09T06:20:01.124Z,91.12
2019-01-09T06:22:29.903Z,91.21
2019-01-09T06:24:58.775Z,90.96
2019-01-09T06:27:28.514Z,91.10
2019-01-09T06:29:57.364Z,91.20
2019-01-09T06:32:26.602Z,91.89
2019-01-09T06:34:55.431Z,91.35
2019-01-09T06:37:27.684Z,90.79
2019-01-09T06:39:53.227Z,90.48
2019-01-09T06:42:22.055Z,90.66
2019-01-09T06:44:50.896Z,90.41
2019-01-09T06:47:19.699Z,90.28
2019-01-09T06:49:48.476Z,90.05
2019-01-09T06:52:17.895Z,90.44
2019-01-09T06:54:47.340Z,90.33
2019-01-09T06:57:16.131Z,90.27
2019-01-09T06:59:45.011Z,90.45
2019-01-09T07:02:13.900Z,90.01
2019-01-09T07:04:44.718Z,89.62
2019-01-09T07:07:11.571Z,89.33
2019-01-09T07:09:41.198Z,89.48
2019-01-09T07:12:11.242Z,89.38
2019-01-09T07:14:40.105Z,89.41
2019-01-09T07:17:09.672Z,88.34
2019-01-09T07:19:38.534Z,88.69
2019-01-09T07:22:07.819Z,88.32
2019-01-09T07:24:36.935Z,88.38
2019-01-09T07:27:05.749Z,88.79
2019-01-09T07:29:35.623Z,88.14
2019-01-09T07:32:04.483Z,88.06
2019-01-09T07:34:33.356Z,87.90
2019-01-09T07:37:03.206Z,87.66
2019-01-09T07:39:32.002Z,88.21
2019-01-09T07:42:00.819Z,88.44
2019-01-09T07:44:30.089Z,88.36
2019-01-09T07:46:58.890Z,87.94
2019-01-09T07:49:27.663Z,87.33
2019-01-09T07:51:56.655Z,87.18
2019-01-09T07:54:25.938Z,87.36
2019-01-09T07:56:54.728Z,87.19
2019-01-09T07:59:23.555Z,87.39
2019-01-09T08:01:52.365Z,86.51
2019-01-09T08:04:21.174Z,86.75
2019-01-09T08:06:50.069Z,86.73
2019-01-09T08:09:19.592Z,86.57
2019-01-09T08:11:49.652Z,86.47
2019-01-09T08:14:18.431Z,86.67
2019-01-09T08:16:47.219Z,86.69
2019-01-09T08:19:16.135Z,86.92
2019-01-09T08:21:45.520Z,87.19
2019-01-09T08:24:14.426Z,87.29
2019-01-09T08:26:43.844Z,86.88
2019-01-09T08:29:12.627Z,87.54
2019-01-09T08:31:41.410Z,87.32
2019-01-09T08:34:10.218Z,87.74
2019-01-09T08:36:39.026Z,87.80
2019-01-09T08:39:07.944Z,87.62
2019-01-09T08:41:37.585Z,88.13
2019-01-09T08:44:06.442Z,87.92
2019-01-09T08:46:35.380Z,88.10
2019-01-09T08:49:04.200Z,88.69
2019-01-09T08:51:33.128Z,88.11
2019-01-09T08:54:01.926Z,88.85
2019-01-09T08:56:30.933Z,88.30
2019-01-09T08:59:01.245Z,88.26
2019-01-09T09:01:29.999Z,88.14
2019-01-09T09:04:02.519Z,88.29
2019-01-09T09:06:31.320Z,88.00
2019-01-09T09:09:00.122Z,87.72
2019-01-09T09:11:28.896Z,87.77
2019-01-09T09:13:57.716Z,87.77
2019-01-09T09:16:26.541Z,87.32
2019-01-09T09:18:55.318Z,87.65
2019-01-09T09:21:24.169Z,87.91
2019-01-09T09:23:54.044Z,88.07
2019-01-09T09:26:25.068Z,87.83
2019-01-09T09:28:53.866Z,87.77
2019-01-09T09:31:22.717Z,86.79
2019-01-09T09:33:51.492Z,86.72
2019-01-09T09:36:20.307Z,86.54
2019-01-09T09:38:49.137Z,86.27
2019-01-09T09:41:17.940Z,86.92
2019-01-09T09:43:46.722Z,86.12
2019-01-09T09:46:16.043Z,86.09
2019-01-09T09:48:45.011Z,85.50
2019-01-09T09:51:13.802Z,85.53
2019-01-09T09:53:42.655Z,84.37
2019-01-09T09:56:11.482Z,84.29
2019-01-09T09:58:40.254Z,84.04
2019-01-09T10:01:09.950Z,83.66
2019-01-09T10:03:38.766Z,82.45
2019-01-09T10:06:07.618Z,81.67
2019-01-09T10:08:36.512Z,82.16
2019-01-09T10:11:05.744Z,80.29
2019-01-09T10:13:34.528Z,80.12
2019-01-09T10:16:03.384Z,78.98
2019-01-09T10:18:32.154Z,77.87
2019-01-09T10:21:01.002Z,78.61
2019-01-09T10:23:29.786Z,75.15
2019-01-09T10:25:58.662Z,74.85
2019-01-09T10:28:27.562Z,76.14
2019-01-09T10:30:56.447Z,75.51
2019-01-09T10:33:25.240Z,74.37
2019-01-09T10:35:54.786Z,72.65
2019-01-09T10:38:27.043Z,73.84
2019-01-09T10:40:56.832Z,73.99
2019-01-09T10:43:25.601Z,72.98
2019-01-09T10:45:54.408Z,70.51
2019-01-09T10:48:24.327Z,72.13
2019-01-09T10:50:54.046Z,71.34
2019-01-09T10:53:23.147Z,71.48
2019-01-09T10:55:52.039Z,69.98
2019-01-09T10:58:20.889Z,67.71
2019-01-09T11:00:51.744Z,66.47
2019-01-09T11:03:20.576Z,68.44
2019-01-09T11:05:49.414Z,66.93
2019-01-09T11:08:18.283Z,68.91
2019-01-09T11:10:47.144Z,69.04
2019-01-09T11:13:16.971Z,68.72
2019-01-09T11:15:45.817Z,67.97
2019-01-09T11:18:14.596Z,65.45
2019-01-09T11:20:43.546Z,66.54
2019-01-09T11:23:12.395Z,66.02
2019-01-09T11:25:41.218Z,64.57
2019-01-09T11:28:11.056Z,64.55
2019-01-09T11:30:39.970Z,64.01
2019-01-09T11:33:08.858Z,63.93
2019-01-09T11:35:37.687Z,64.41
2019-01-09T11:38:06.462Z,63.15
2019-01-09T11:40:35.327Z,63.54
2019-01-09T11:43:04.125Z,63.71
2019-01-09T11:45:32.972Z,64.85
2019-01-09T11:48:01.746Z,63.95
2019-01-09T11:50:32.899Z,65.03
2019-01-09T11:53:01.752Z,64.51
2019-01-09T11:55:30.612Z,66.47
2019-01-09T11:57:59.555Z,66.68
2019-01-09T12:00:30.140Z,66.49
2019-01-09T12:02:58.927Z,67.06
2019-01-09T12:05:27.741Z,64.72
2019-01-09T12:07:56.603Z,65.88
2019-01-09T12:10:30.245Z,66.67
2019-01-09T12:12:55.323Z,66.70
2019-01-09T12:15:24.166Z,66.60
2019-01-09T12:17:54.512Z,65.32
2019-01-09T12:20:23.380Z,65.03
2019-01-09T12:22:52.214Z,64.50
2019-01-09T12:25:21.013Z,64.20
2019-01-09T12:27:50.119Z,65.38
2019-01-09T12:30:21.949Z,63.99
2019-01-09T12:32:50.818Z,64.83
2019-01-09T12:35:19.709Z,63.48
2019-01-09T12:37:48.511Z,62.74
2019-01-09T12:40:17.300Z,61.69
2019-01-09T12:42:46.165Z,60.73
2019-01-09T12:45:15.791Z,58.95
2019-01-09T12:47:46.314Z,59.02
2019-01-09T12:50:17.807Z,59.23
2019-01-09T12:52:47.651Z,59.19
2019-01-09T12:55:17.180Z,58.17
2019-01-09T12:57:46.851Z,59.48
2019-01-09T13:00:21.010Z,60.15
2019-01-09T13:02:50.010Z,60.01
2019-01-09T13:05:18.810Z,59.88
2019-01-09T13:07:48.180Z,59.57
2019-01-09T13:10:17.925Z,60.44
2019-01-09T13:12:46.746Z,59.69
2019-01-09T13:15:15.523Z,60.62
2019-01-09T13:17:45.054Z,60.47
2019-01-09T13:20:14.164Z,57.59
2019-01-09T13:22:42.971Z,57.35
2019-01-09T13:25:12.383Z,58.45
2019-01-09T13:27:42.937Z,57.84
2019-01-09T13:30:21.778Z,56.98
2019-01-09T13:32:52.364Z,59.13
2019-01-09T13:35:21.255Z,57.29
2019-01-09T13:37:50.045Z,57.59
2019-01-09T13:40:19.747Z,57.09
2019-01-09T13:42:48.686Z,56.42
2019-01-09T13:45:20.280Z,58.31
2019-01-09T13:47:49.889Z,55.97
2019-01-09T13:50:19.247Z,56.52
2019-01-09T13:52:48.218Z,56.17
2019-01-09T13:55:17.052Z,56.41
2019-01-09T13:57:46.709Z,56.58
2019-01-09T14:00:18.538Z,56.87
2019-01-09T14:02:47.362Z,56.60
2019-01-09T14:05:17.413Z,56.58
2019-01-09T14:07:46.247Z,57.40
2019-01-09T14:10:19.156Z,56.89
2019-01-09T14:12:48.099Z,56.87
2019-01-09T14:15:18.579Z,57.68
2019-01-09T14:17:47.991Z,58.16
2019-01-09T14:20:16.818Z,58.00
2019-01-09T14:22:46.834Z,58.72
2019-01-09T14:25:14.614Z,59.24
2019-01-09T14:27:46.384Z,60.04
2019-01-09T14:30:20.522Z,59.92
2019-01-09T14:32:50.519Z,60.35
2019-01-09T14:35:19.368Z,59.29
2019-01-09T14:37:48.184Z,59.52
2019-01-09T14:40:18.251Z,59.56
2019-01-09T14:42:47.048Z,60.29
2019-01-09T14:45:15.890Z,60.77
2019-01-09T14:47:44.732Z,60.36
2019-01-09T14:50:16.931Z,61.05
2019-01-09T14:52:46.419Z,61.17
2019-01-09T14:55:15.773Z,62.09
2019-01-09T14:57:44.730Z,62.28
2019-01-09T15:00:19.368Z,62.48
2019-01-09T15:02:48.402Z,62.98
2019-01-09T15:05:17.220Z,63.28
2019-01-09T15:07:46.076Z,63.15
2019-01-09T15:10:19.137Z,63.07
2019-01-09T15:12:49.172Z,63.60
2019-01-09T15:15:17.959Z,63.76
2019-01-09T15:17:47.329Z,63.52
2019-01-09T15:20:17.742Z,64.30
2019-01-09T15:22:46.526Z,65.18
2019-01-09T15:25:15.386Z,65.23
2019-01-09T15:27:44.192Z,65.21
2019-01-09T15:30:17.055Z,65.18
2019-01-09T15:32:45.827Z,65.17
2019-01-09T15:35:14.663Z,66.48
2019-01-09T15:37:43.958Z,65.41
2019-01-09T15:40:15.432Z,65.62
2019-01-09T15:42:44.249Z,66.15
2019-01-09T15:45:14.030Z,66.47
2019-01-09T15:47:43.472Z,66.59
2019-01-09T15:50:14.487Z,66.47
2019-01-09T15:52:43.158Z,66.18
2019-01-09T15:55:16.736Z,66.75
2019-01-09T15:57:46.411Z,66.15
2019-01-09T16:00:17.930Z,66.42
2019-01-09T16:02:46.794Z,67.05
2019-01-09T16:05:15.644Z,67.15
2019-01-09T16:07:44.467Z,67.79
2019-01-09T16:10:14.688Z,67.46
2019-01-09T16:12:42.882Z,67.85
2019-01-09T16:15:12.899Z,68.23
2019-01-09T16:17:41.704Z,68.13
2019-01-09T16:20:16.888Z,68.52
2019-01-09T16:22:40.036Z,68.68
2019-01-09T16:25:09.604Z,68.08
2019-01-09T16:27:39.083Z,68.17
2019-01-09T16:30:39.104Z,68.94
2019-01-09T16:33:08.904Z,68.57
2019-01-09T16:35:37.765Z,69.31
2019-01-09T16:38:06.635Z,68.60
2019-01-09T16:40:35.407Z,69.14
2019-01-09T16:43:04.562Z,68.44
2019-01-09T16:45:33.364Z,68.66
2019-01-09T16:48:02.819Z,69.39
2019-01-09T16:50:31.655Z,69.18
2019-01-09T16:58:27.995Z,68.89
2019-01-09T17:00:57.509Z,69.36
2019-01-09T17:03:26.655Z,69.62
2019-01-09T17:05:55.547Z,69.90
2019-01-09T17:08:24.331Z,69.45
2019-01-09T17:10:53.170Z,69.56
2019-01-09T17:13:21.971Z,69.65
2019-01-09T17:15:50.856Z,70.27
2019-01-09T17:18:20.363Z,70.35
2019-01-09T17:20:49.466Z,70.28
2019-01-09T17:23:19.122Z,70.25
2019-01-09T17:25:47.921Z,70.54
2019-01-09T17:28:16.762Z,70.66
2019-01-09T17:30:46.178Z,70.58
2019-01-09T17:33:14.961Z,70.88
2019-01-09T17:35:43.862Z,71.10
2019-01-09T17:38:12.616Z,71.00
2019-01-09T17:40:41.545Z,71.28
2019-01-09T17:43:10.212Z,71.52
2019-01-09T17:45:39.690Z,71.03
2019-01-09T17:48:08.610Z,71.68
2019-01-09T17:50:37.819Z,72.01
2019-01-09T17:53:06.807Z,72.04
2019-01-09T17:55:35.654Z,72.00
2019-01-09T17:58:04.526Z,71.94
2019-01-09T18:00:35.672Z,72.28
2019-01-09T18:03:05.056Z,73.24
2019-01-09T18:05:33.977Z,72.98
2019-01-09T18:08:10.360Z,73.13
2019-01-09T18:10:31.602Z,73.29
2019-01-09T18:13:00.437Z,73.26
2019-01-09T18:15:29.928Z,73.50
2019-01-09T18:17:58.745Z,73.20
2019-01-09T18:20:28.347Z,73.87
2019-01-09T18:22:57.147Z,73.23
2019-01-09T18:25:27.564Z,74.13
2019-01-09T18:27:56.419Z,73.84
2019-01-09T18:30:36.377Z,74.42
2019-01-09T18:33:13.584Z,74.61
2019-01-09T18:35:50.319Z,73.87
2019-01-09T18:38:31.754Z,74.33
2019-01-09T18:41:18.587Z,74.07
2019-01-09T18:43:58.451Z,74.19
2019-01-09T18:46:41.179Z,74.63
2019-01-09T18:49:20.965Z,74.93
2019-01-09T18:52:13.466Z,74.33
2019-01-09T18:54:42.257Z,74.58
2019-01-09T18:57:12.097Z,74.77
2019-01-09T18:59:41.049Z,74.87
2019-01-09T19:02:09.960Z,75.08
2019-01-09T19:04:40.087Z,74.99
2019-01-09T19:07:07.694Z,74.58
2019-01-09T19:09:37.909Z,75.22
2019-01-09T19:12:06.742Z,75.20
2019-01-09T19:14:38.669Z,74.72
2019-01-09T19:17:07.551Z,75.03
2019-01-09T19:19:36.340Z,75.53
2019-01-09T19:22:05.264Z,75.06
2019-01-09T19:24:34.044Z,75.31
2019-01-09T19:27:03.951Z,75.10
2019-01-09T19:29:32.799Z,75.41
2019-01-09T19:32:01.712Z,75.23
2019-01-09T19:34:31.820Z,75.74
2019-01-09T19:37:00.630Z,75.46
2019-01-09T19:39:30.055Z,75.45
2019-01-09T19:41:59.721Z,75.18
2019-01-09T19:44:28.531Z,75.42
2019-01-09T19:46:57.315Z,75.47
2019-01-09T19:49:26.143Z,75.74
2019-01-09T19:51:55.099Z,75.57
2019-01-09T19:54:23.990Z,76.25
2019-01-09T19:56:53.951Z,75.70
2019-01-09T19:59:22.811Z,75.93
2019-01-09T20:01:52.647Z,75.44
2019-01-09T20:04:22.569Z,76.07
2019-01-09T20:06:55.429Z,75.61
2019-01-09T20:09:24.420Z,75.68
2019-01-09T20:11:53.290Z,76.69
2019-01-09T20:14:23.016Z,76.66
2019-01-09T20:16:51.913Z,76.16
2019-01-09T20:19:20.744Z,76.37
2019-01-09T20:21:49.527Z,76.82
2019-01-09T20:24:19.484Z,76.36
2019-01-09T20:26:47.735Z,76.30
2019-01-09T20:29:16.531Z,77.10
2019-01-09T20:31:45.368Z,77.14
2019-01-09T20:34:14.676Z,77.00
2019-01-09T20:36:43.585Z,77.08
2019-01-09T20:39:12.524Z,76.92
2019-01-09T20:41:42.550Z,76.77
2019-01-09T20:44:11.340Z,76.93
2019-01-09T20:46:40.225Z,77.19
2019-01-09T20:49:09.725Z,77.11
2019-01-09T20:51:38.700Z,76.95
2019-01-09T20:54:09.355Z,77.59
2019-01-09T20:56:36.922Z,77.69
2019-01-09T20:59:06.854Z,77.07
2019-01-09T21:01:35.689Z,77.59
2019-01-09T21:04:05.338Z,77.45
2019-01-09T21:06:34.376Z,77.83
2019-01-09T21:09:04.498Z,77.76
2019-01-09T21:11:33.303Z,78.01
2019-01-09T21:14:02.763Z,78.39
2019-01-09T21:16:31.512Z,77.72
2019-01-09T21:19:00.384Z,78.14
2019-01-09T21:21:29.276Z,77.72
2019-01-09T21:23:58.418Z,78.03
2019-01-09T21:26:27.752Z,77.57
2019-01-09T21:28:57.400Z,78.48
2019-01-09T21:31:26.193Z,77.75
2019-01-09T21:33:54.974Z,78.52
2019-01-09T21:36:24.314Z,78.00
2019-01-09T21:38:53.134Z,78.24
2019-01-09T21:41:22.055Z,78.63
2019-01-09T21:43:51.839Z,78.11
2019-01-09T21:46:20.627Z,78.28
2019-01-09T21:48:49.436Z,78.29
2019-01-09T21:51:18.278Z,78.45
2019-01-09T21:53:47.111Z,78.36
2019-01-09T21:56:15.985Z,78.47
2019-01-09T21:58:45.305Z,78.71
2019-01-09T22:01:14.244Z,78.38
2019-01-09T22:03:43.087Z,78.35
2019-01-09T22:06:13.984Z,78.39
2019-01-09T22:08:41.695Z,78.74
2019-01-09T22:11:10.552Z,78.31
2019-01-09T22:13:40.307Z,78.92
2019-01-09T22:16:09.647Z,78.74
2019-01-09T22:18:38.711Z,78.98
2019-01-09T22:21:07.158Z,78.48
2019-01-09T22:23:36.462Z,78.96
2019-01-09T22:26:05.834Z,78.81
2019-01-09T22:28:34.664Z,79.17
2019-01-09T22:31:04.394Z,79.08
2019-01-09T22:33:34.958Z,79.15
2019-01-09T22:36:04.451Z,79.14
2019-01-09T22:38:33.279Z,79.64
2019-01-09T22:41:02.051Z,79.72
2019-01-09T22:43:30.856Z,78.84
2019-01-09T22:46:00.455Z,79.32
2019-01-09T22:48:29.195Z,79.80
2019-01-09T22:50:58.052Z,79.01
2019-01-09T22:53:28.086Z,79.56
2019-01-09T22:55:56.916Z,79.80
2019-01-09T22:58:25.747Z,78.97
2019-01-09T23:01:07.620Z,79.77
2019-01-09T23:03:37.858Z,79.63
2019-01-09T23:06:06.879Z,79.60
2019-01-09T23:08:35.658Z,79.85
2019-01-09T23:11:04.455Z,79.86
2019-01-09T23:13:34.767Z,79.49
2019-01-09T23:16:03.565Z,80.17
2019-01-09T23:18:33.727Z,79.70
2019-01-09T23:21:03.617Z,80.41
2019-01-09T23:23:32.543Z,80.02
2019-01-09T23:26:01.351Z,80.25
2019-01-09T23:28:30.310Z,79.73
2019-01-09T23:30:59.077Z,80.00
2019-01-09T23:33:27.856Z,80.49
2019-01-09T23:35:56.710Z,80.11
2019-01-09T23:38:25.497Z,80.91
2019-01-09T23:40:54.298Z,80.43
2019-01-09T23:43:24.027Z,80.63
2019-01-09T23:45:55.809Z,81.14
2019-01-09T23:48:24.619Z,80.51
2019-01-09T23:50:53.414Z,80.27
2019-01-09T23:53:22.303Z,80.43
2019-01-09T23:55:51.165Z,81.09
2019-01-09T23:58:20.274Z,80.76
